createdAt,value
2023-03-12T00:00:13.156Z,99349.31
2023-03-12T00:02:39.892Z,99354.69
2023-03-12T00:05:08.716Z,99354.63
2023-03-12T00:07:35.465Z,99350.97
2023-03-12T00:10:02.347Z,99354.78
2023-03-12T00:12:28.894Z,99336.41
2023-03-12T00:14:55.549Z,99337.84
2023-03-12T00:17:24.574Z,99341.41
2023-03-12T00:19:51.903Z,99351.47
2023-03-12T00:22:20.282Z,99342.81
2023-03-12T00:24:50.691Z,99354.69
2023-03-12T00:27:17.490Z,99343.84
2023-03-12T00:29:44.193Z,99348.06
2023-03-12T00:32:10.827Z,99345.28
2023-03-12T00:34:37.673Z,99342.72
2023-03-12T00:37:04.397Z,99335.75
2023-03-12T00:39:32.640Z,99324.38
2023-03-12T00:41:59.205Z,99328.81
2023-03-12T00:44:25.839Z,99327.47
2023-03-12T00:46:52.767Z,99320.91
2023-03-12T00:49:19.418Z,99324.72
2023-03-12T00:51:45.965Z,99318.56
2023-03-12T00:54:12.598Z,99308.59
2023-03-12T00:56:40.602Z,99308.53
2023-03-12T00:59:07.201Z,99306.63
2023-03-12T01:01:33.748Z,99305.59
2023-03-12T01:04:00.464Z,99307.06
2023-03-12T01:06:27.235Z,99295.13
2023-03-12T01:08:53.921Z,99300.81
2023-03-12T01:11:21.193Z,99290.28
2023-03-12T01:13:49.632Z,99295.88
2023-03-12T01:16:16.390Z,99298.88
2023-03-12T01:18:45.175Z,99298.78
2023-03-12T01:21:11.757Z,99297.72
2023-03-12T01:23:38.546Z,99295.22
2023-03-12T01:26:05.145Z,99289.16
2023-03-12T01:28:31.804Z,99290.34
2023-03-12T01:31:06.628Z,99270.25
2023-03-12T01:33:33.443Z,99279.00
2023-03-12T01:36:00.501Z,99270.81
2023-03-12T01:38:27.203Z,99283.94
2023-03-12T01:40:53.787Z,99276.59
2023-03-12T01:43:28.152Z,99273.44
2023-03-12T01:46:16.974Z,99274.16
2023-03-12T01:48:47.844Z,99261.59
2023-03-12T01:51:16.875Z,99266.22
2023-03-12T01:53:48.109Z,99253.78
2023-03-12T01:56:16.597Z,99258.06
2023-03-12T01:58:47.220Z,99251.72
2023-03-12T02:01:17.811Z,99247.53
2023-03-12T02:03:47.552Z,99252.94
2023-03-12T02:06:15.773Z,99250.75
2023-03-12T02:08:45.561Z,99248.16
2023-03-12T02:11:12.555Z,99257.69
2023-03-12T02:13:39.557Z,99265.13
2023-03-12T02:16:06.646Z,99254.66
2023-03-12T02:18:35.862Z,99247.22
2023-03-12T02:21:13.643Z,99233.22
2023-03-12T02:23:45.503Z,99233.31
2023-03-12T02:26:14.789Z,99228.34
2023-03-12T02:28:43.282Z,99222.75
2023-03-12T02:31:12.871Z,99227.44
2023-03-12T02:33:39.708Z,99229.72
2023-03-12T02:36:06.646Z,99230.47
2023-03-12T02:38:39.132Z,99234.94
2023-03-12T02:41:11.314Z,99228.88
2023-03-12T02:43:40.555Z,99233.19
2023-03-12T02:46:08.799Z,99237.94
2023-03-12T02:48:35.698Z,99233.78
2023-03-12T02:51:02.457Z,99232.94
2023-03-12T02:53:29.126Z,99224.13
2023-03-12T02:55:55.684Z,99229.84
2023-03-12T02:58:22.467Z,99229.59
2023-03-12T03:00:50.413Z,99210.56
2023-03-12T03:03:17.318Z,99202.63
2023-03-12T03:05:43.925Z,99208.78
2023-03-12T03:08:10.811Z,99197.97
2023-03-12T03:10:37.412Z,99207.25
2023-03-12T03:13:04.013Z,99205.47
2023-03-12T03:15:30.959Z,99205.19
2023-03-12T03:17:58.920Z,99196.16
2023-03-12T03:20:25.550Z,99187.34
2023-03-12T03:22:52.243Z,99190.50
2023-03-12T03:25:18.954Z,99188.13
2023-03-12T03:27:45.800Z,99185.59
2023-03-12T03:30:12.640Z,99189.00
2023-03-12T03:32:39.274Z,99174.47
2023-03-12T03:35:08.433Z,99178.78
2023-03-12T03:37:37.690Z,99188.53
2023-03-12T03:40:05.282Z,99182.19
2023-03-12T03:42:32.074Z,99184.09
2023-03-12T03:44:58.668Z,99186.06
2023-03-12T03:47:25.078Z,99187.66
2023-03-12T03:49:51.707Z,99186.47
2023-03-12T03:52:19.668Z,99185.69
2023-03-12T03:54:46.246Z,99180.78
2023-03-12T03:57:12.832Z,99176.78
2023-03-12T03:59:39.415Z,99187.19
2023-03-12T04:02:05.993Z,99186.44
2023-03-12T04:04:32.546Z,99182.91
2023-03-12T04:06:59.332Z,99178.63
2023-03-12T04:09:27.236Z,99174.09
2023-03-12T04:11:53.963Z,99174.81
2023-03-12T04:14:20.524Z,99175.94
2023-03-12T04:16:47.271Z,99167.03
2023-03-12T04:19:13.910Z,99176.72
2023-03-12T04:21:40.601Z,99171.56
2023-03-12T04:24:07.988Z,99175.13
2023-03-12T04:26:35.922Z,99167.69
2023-03-12T04:29:02.461Z,99162.44
2023-03-12T04:31:29.412Z,99151.00
2023-03-12T04:33:55.945Z,99157.75
2023-03-12T04:36:23.492Z,99155.91
2023-03-12T04:38:50.740Z,99145.38
2023-03-12T04:41:17.887Z,99146.31
2023-03-12T04:43:46.355Z,99142.91
2023-03-12T04:46:13.081Z,99138.16
2023-03-12T04:48:39.698Z,99139.34
2023-03-12T04:51:06.263Z,99149.00
2023-03-12T04:53:33.091Z,99148.50
2023-03-12T04:55:59.732Z,99143.84
2023-03-12T04:58:26.556Z,99140.88
2023-03-12T05:00:54.535Z,99137.00
2023-03-12T05:03:21.125Z,99135.16
2023-03-12T05:05:47.780Z,99133.28
2023-03-12T05:08:14.415Z,99125.56
2023-03-12T05:10:41.174Z,99123.09
2023-03-12T05:13:14.072Z,99118.84
2023-03-12T05:15:40.756Z,99104.50
2023-03-12T05:18:08.689Z,99099.31
2023-03-12T05:20:35.268Z,99098.63
2023-03-12T05:23:01.871Z,99096.41
2023-03-12T05:25:28.602Z,99104.63
2023-03-12T05:27:55.278Z,99092.53
2023-03-12T05:30:21.942Z,99106.38
2023-03-12T05:32:48.874Z,99085.66
2023-03-12T05:35:17.025Z,99070.47
2023-03-12T05:37:44.200Z,99086.66
2023-03-12T05:40:12.445Z,99077.88
2023-03-12T05:42:39.393Z,99068.75
2023-03-12T05:45:07.622Z,99054.38
2023-03-12T05:47:34.315Z,99050.34
2023-03-12T05:50:00.903Z,99063.25
2023-03-12T05:52:28.838Z,99070.16
2023-03-12T05:54:55.706Z,99063.59
2023-03-12T05:57:22.242Z,99063.69
2023-03-12T05:59:48.780Z,99065.50
2023-03-12T06:02:15.408Z,99048.53
2023-03-12T06:04:41.960Z,99042.84
2023-03-12T06:07:08.631Z,99029.69
2023-03-12T06:09:36.839Z,99034.97
2023-03-12T06:12:03.982Z,99030.34
2023-03-12T06:14:30.544Z,99015.28
2023-03-12T06:16:57.201Z,99015.03
2023-03-12T06:19:23.818Z,99021.56
2023-03-12T06:21:50.879Z,99023.78
2023-03-12T06:24:17.446Z,99023.84
2023-03-12T06:26:45.499Z,99028.06
2023-03-12T06:29:12.083Z,99027.41
2023-03-12T06:31:39.102Z,99029.91
2023-03-12T06:34:05.915Z,99038.81
2023-03-12T06:36:32.520Z,99038.72
2023-03-12T06:38:59.085Z,99031.97
2023-03-12T06:41:25.673Z,99039.19
2023-03-12T06:43:53.770Z,99051.41
2023-03-12T06:46:20.810Z,99046.78
2023-03-12T06:48:48.294Z,99036.31
2023-03-12T06:51:16.574Z,99044.09
2023-03-12T06:53:43.484Z,99031.03
2023-03-12T06:56:11.213Z,99029.69
2023-03-12T06:58:38.481Z,99030.34
2023-03-12T07:01:06.905Z,99037.94
2023-03-12T07:03:34.078Z,99035.00
2023-03-12T07:06:00.750Z,99038.63
2023-03-12T07:08:28.614Z,99022.16
2023-03-12T07:10:55.169Z,99031.91
2023-03-12T07:13:21.703Z,99044.66
2023-03-12T07:15:48.816Z,99032.88
2023-03-12T07:18:17.133Z,99038.00
2023-03-12T07:20:43.943Z,99026.94
2023-03-12T07:23:11.229Z,99025.38
2023-03-12T07:25:39.284Z,99016.31
2023-03-12T07:28:07.472Z,99017.31
2023-03-12T07:30:34.670Z,99009.97
2023-03-12T07:33:01.694Z,99021.63
2023-03-12T07:35:30.504Z,99024.00
2023-03-12T07:37:58.367Z,99014.00
2023-03-12T07:40:25.085Z,99024.31
2023-03-12T07:42:52.150Z,99023.28
2023-03-12T07:45:19.994Z,99021.22
2023-03-12T07:47:47.476Z,99019.63
2023-03-12T07:50:14.914Z,99018.72
2023-03-12T07:52:42.868Z,99020.56
2023-03-12T07:55:10.435Z,99027.03
2023-03-12T07:57:37.529Z,99023.97
2023-03-12T08:00:05.782Z,99013.03
2023-03-12T08:02:32.531Z,99016.59
2023-03-12T08:04:59.345Z,99012.06
2023-03-12T08:07:26.243Z,99006.94
2023-03-12T08:09:54.469Z,99017.38
2023-03-12T08:12:21.125Z,99020.69
2023-03-12T08:14:47.944Z,99010.16
2023-03-12T08:17:14.583Z,99024.47
2023-03-12T08:19:41.299Z,99033.69
2023-03-12T08:22:08.064Z,99020.97
2023-03-12T08:24:34.937Z,99026.19
2023-03-12T08:27:03.057Z,99026.47
2023-03-12T08:29:29.727Z,99034.50
2023-03-12T08:32:04.418Z,99036.31
2023-03-12T08:34:32.206Z,99028.78
2023-03-12T08:36:58.846Z,99025.94
2023-03-12T08:39:25.577Z,99017.94
2023-03-12T08:41:52.373Z,99017.38
2023-03-12T08:44:20.325Z,99007.88
2023-03-12T08:46:46.894Z,99004.78
2023-03-12T08:49:13.922Z,99003.47
2023-03-12T08:51:40.463Z,99008.06
2023-03-12T08:54:07.061Z,99004.31
2023-03-12T08:56:33.792Z,98996.75
2023-03-12T08:59:00.380Z,99003.81
2023-03-12T09:01:28.925Z,99009.41
2023-03-12T09:03:55.604Z,98999.84
2023-03-12T09:06:22.262Z,99001.03
2023-03-12T09:08:48.860Z,98999.19
2023-03-12T09:11:16.022Z,98998.53
2023-03-12T09:14:08.189Z,98989.41
2023-03-12T09:16:30.938Z,99008.16
2023-03-12T09:18:57.619Z,99003.06
2023-03-12T09:21:24.142Z,99007.97
2023-03-12T09:23:51.057Z,99011.06
2023-03-12T09:26:17.766Z,99009.78
2023-03-12T09:28:44.384Z,99006.34
2023-03-12T09:31:11.069Z,99006.00
2023-03-12T09:33:39.163Z,99017.66
2023-03-12T09:36:06.805Z,99013.69
2023-03-12T09:38:33.755Z,99006.03
2023-03-12T09:41:00.362Z,99010.59
2023-03-12T09:43:32.344Z,99018.03
2023-03-12T09:46:00.238Z,99010.78
2023-03-12T09:48:32.056Z,99022.72
2023-03-12T09:51:02.726Z,99012.31
2023-03-12T09:53:33.379Z,99026.84
2023-03-12T09:56:04.602Z,99023.53
2023-03-12T09:58:32.958Z,99034.44
2023-03-12T10:01:09.010Z,99012.78
2023-03-12T10:03:53.357Z,99034.91
2023-03-12T10:06:23.037Z,99040.13
2023-03-12T10:09:01.970Z,99036.66
2023-03-12T10:11:40.429Z,99030.59
2023-03-12T10:14:24.223Z,99025.25
2023-03-12T10:17:02.203Z,99025.78
2023-03-12T10:19:55.961Z,99023.09
2023-03-12T10:22:47.882Z,99029.44
2023-03-12T10:25:22.457Z,99033.16
2023-03-12T10:27:49.976Z,99017.25
2023-03-12T10:30:19.737Z,99009.00
2023-03-12T10:32:49.405Z,99030.53
2023-03-12T10:35:21.194Z,99034.00
2023-03-12T10:37:53.680Z,99038.59
2023-03-12T10:40:23.428Z,99036.31
2023-03-12T10:42:50.633Z,99035.75
2023-03-12T10:45:27.770Z,99036.97
2023-03-12T10:47:57.361Z,99035.28
2023-03-12T10:50:25.676Z,99046.66
2023-03-12T10:53:12.972Z,99041.13
2023-03-12T10:55:39.805Z,99038.38
2023-03-12T10:58:06.374Z,99042.63
2023-03-12T11:00:33.405Z,99041.84
2023-03-12T11:03:01.328Z,99046.50
2023-03-12T11:05:30.020Z,99044.13
2023-03-12T11:07:58.997Z,99044.25
2023-03-12T11:10:27.618Z,99048.56
2023-03-12T11:13:00.571Z,99044.75
2023-03-12T11:15:29.386Z,99027.00
2023-03-12T11:18:21.842Z,99038.25
2023-03-12T11:20:49.233Z,99042.28
2023-03-12T11:23:22.397Z,99035.59
2023-03-12T11:25:55.295Z,99030.81
2023-03-12T11:28:25.452Z,99038.25
2023-03-12T11:30:56.939Z,99038.66
2023-03-12T11:33:23.753Z,99031.53
2023-03-12T11:36:03.970Z,99028.09
2023-03-12T11:38:38.241Z,99025.16
2023-03-12T11:41:18.598Z,99030.06
2023-03-12T11:43:56.915Z,99035.16
2023-03-12T11:46:37.066Z,99033.03
2023-03-12T11:49:16.097Z,99029.03
2023-03-12T11:51:51.126Z,99024.53
2023-03-12T11:55:11.476Z,99037.03
2023-03-12T11:57:47.150Z,99033.59
2023-03-12T12:00:15.869Z,99028.16
2023-03-12T12:03:23.862Z,99044.34
2023-03-12T12:05:59.315Z,99041.94
2023-03-12T12:08:46.418Z,99031.75
2023-03-12T12:11:23.639Z,99018.78
2023-03-12T12:14:02.426Z,99026.31
2023-03-12T12:16:52.633Z,99019.94
2023-03-12T12:19:40.877Z,99024.16
2023-03-12T12:22:22.005Z,99021.81
2023-03-12T12:25:06.877Z,99032.31
2023-03-12T12:27:40.890Z,99026.75
2023-03-12T12:30:18.978Z,99029.38
2023-03-12T12:33:04.725Z,99024.16
2023-03-12T12:35:35.472Z,99027.63
2023-03-12T12:38:07.652Z,99027.66
2023-03-12T12:40:38.047Z,99023.59
2023-03-12T12:43:22.021Z,99030.75
2023-03-12T12:45:52.341Z,99013.09
2023-03-12T12:48:22.508Z,98997.97
2023-03-12T12:50:51.767Z,98998.41
2023-03-12T12:53:22.840Z,99000.25
2023-03-12T12:55:58.794Z,99000.19
2023-03-12T12:58:47.415Z,98991.03
2023-03-12T13:01:16.095Z,98974.53
2023-03-12T13:03:43.784Z,98974.25
2023-03-12T13:06:10.386Z,98976.69
2023-03-12T13:08:59.382Z,98966.44
2023-03-12T13:11:30.323Z,98965.56
2023-03-12T13:14:14.728Z,98967.22
2023-03-12T13:16:43.071Z,98970.31
2023-03-12T13:19:24.397Z,98974.31
2023-03-12T13:22:03.892Z,98964.75
2023-03-12T13:24:33.591Z,98962.22
2023-03-12T13:27:08.827Z,98951.13
2023-03-12T13:29:40.057Z,98947.88
2023-03-12T13:32:29.965Z,98937.00
2023-03-12T13:34:57.915Z,98937.06
2023-03-12T13:37:47.278Z,98937.53
2023-03-12T13:41:01.513Z,98936.63
2023-03-12T13:43:49.883Z,98935.88
2023-03-12T13:46:44.128Z,98926.03
2023-03-12T13:49:15.085Z,98925.09
2023-03-12T13:51:57.873Z,98926.09
2023-03-12T13:54:29.512Z,98916.91
2023-03-12T13:57:02.262Z,98915.16
2023-03-12T13:59:31.155Z,98917.63
2023-03-12T14:02:05.476Z,98919.31
2023-03-12T14:04:39.466Z,98913.38
2023-03-12T14:07:50.364Z,98915.28
2023-03-12T14:10:29.742Z,98921.63
2023-03-12T14:13:08.429Z,98915.31
2023-03-12T14:15:40.099Z,98915.91
2023-03-12T14:18:15.269Z,98917.91
2023-03-12T14:20:50.411Z,98910.00
2023-03-12T14:23:17.762Z,98914.97
2023-03-12T14:25:46.027Z,98910.63
2023-03-12T14:28:16.768Z,98910.66
2023-03-12T14:30:50.387Z,98909.50
2023-03-12T14:33:19.177Z,98915.38
2023-03-12T14:35:51.121Z,98927.97
2023-03-12T14:38:25.120Z,98922.06
2023-03-12T14:40:56.613Z,98917.75
2023-03-12T14:43:25.691Z,98926.00
2023-03-12T14:45:55.483Z,98938.09
2023-03-12T14:48:27.105Z,98930.97
2023-03-12T14:50:56.077Z,98938.91
2023-03-12T14:53:26.230Z,98952.63
2023-03-12T14:56:05.348Z,98943.22
2023-03-12T14:58:34.100Z,98940.19
2023-03-12T15:01:03.717Z,98949.75
2023-03-12T15:03:43.449Z,98944.19
2023-03-12T15:06:18.131Z,98947.84
2023-03-12T15:08:45.230Z,98949.19
2023-03-12T15:11:12.391Z,98955.38
2023-03-12T15:13:39.890Z,98955.25
2023-03-12T15:16:07.641Z,98957.00
2023-03-12T15:18:36.623Z,98955.81
2023-03-12T15:21:03.806Z,98946.72
2023-03-12T15:23:33.429Z,98937.94
2023-03-12T15:26:13.269Z,98949.91
2023-03-12T15:28:40.669Z,98952.63
2023-03-12T15:31:12.998Z,98953.03
2023-03-12T15:33:42.340Z,98946.13
2023-03-12T15:36:27.031Z,98946.72
2023-03-12T15:38:59.982Z,98951.81
2023-03-12T15:41:31.959Z,98950.34
2023-03-12T15:43:59.746Z,98940.53
2023-03-12T15:46:27.418Z,98938.66
2023-03-12T15:48:58.010Z,98953.25
2023-03-12T15:51:33.689Z,98965.03
2023-03-12T15:54:02.721Z,98972.97
2023-03-12T15:56:31.284Z,98980.09
2023-03-12T15:59:04.786Z,98979.50
2023-03-12T16:01:44.624Z,98970.97
2023-03-12T16:04:12.965Z,98966.25
2023-03-12T16:06:40.014Z,98975.59
2023-03-12T16:09:06.693Z,98972.94
2023-03-12T16:11:36.602Z,98983.88
2023-03-12T16:14:06.437Z,98977.34
2023-03-12T16:16:33.626Z,98978.22
2023-03-12T16:19:00.559Z,98983.00
2023-03-12T16:21:28.543Z,98974.22
2023-03-12T16:23:55.121Z,98973.69
2023-03-12T16:26:21.758Z,98979.75
2023-03-12T16:28:48.547Z,98985.72
2023-03-12T16:31:16.383Z,98992.28
2023-03-12T16:33:43.336Z,98985.19
2023-03-12T16:36:12.922Z,98987.81
2023-03-12T16:38:40.967Z,98990.00
2023-03-12T16:41:11.789Z,98980.59
2023-03-12T16:43:38.518Z,98993.38
2023-03-12T16:46:07.899Z,98995.25
2023-03-12T16:48:35.489Z,98997.47
2023-03-12T16:51:02.286Z,98998.03
2023-03-12T16:53:29.145Z,99009.50
2023-03-12T16:55:59.089Z,98995.25
2023-03-12T16:58:28.376Z,98994.78
2023-03-12T17:00:55.847Z,98992.09
2023-03-12T17:03:30.402Z,98991.31
2023-03-12T17:05:57.455Z,98996.44
2023-03-12T17:08:24.499Z,98984.88
2023-03-12T17:10:51.295Z,98998.09
2023-03-12T17:13:22.330Z,98997.00
2023-03-12T17:15:49.854Z,98999.00
2023-03-12T17:18:16.856Z,99000.00
2023-03-12T17:20:43.910Z,98994.50
2023-03-12T17:23:13.778Z,99001.34
2023-03-12T17:25:45.993Z,98995.19
2023-03-12T17:28:13.234Z,98989.75
2023-03-12T17:30:41.291Z,98995.53
2023-03-12T17:33:20.712Z,99007.91
2023-03-12T17:36:09.521Z,99010.00
2023-03-12T17:38:37.037Z,99011.03
2023-03-12T17:41:07.511Z,99026.13
2023-03-12T17:43:36.229Z,99019.69
2023-03-12T17:46:06.283Z,99020.22
2023-03-12T17:48:33.010Z,99010.56
2023-03-12T17:50:59.622Z,99033.19
2023-03-12T17:53:26.396Z,99035.66
2023-03-12T17:55:52.970Z,99037.53
2023-03-12T17:58:19.613Z,99041.47
2023-03-12T18:00:46.207Z,99046.91
2023-03-12T18:03:14.301Z,99042.66
2023-03-12T18:05:40.984Z,99045.41
2023-03-12T18:08:07.783Z,99049.25
2023-03-12T18:10:34.585Z,99050.03
2023-03-12T18:13:01.334Z,99057.44
2023-03-12T18:15:30.310Z,99044.72
2023-03-12T18:17:57.507Z,99039.59
2023-03-12T18:20:36.177Z,99044.72
2023-03-12T18:23:05.049Z,99030.63
2023-03-12T18:25:31.710Z,99039.50
2023-03-12T18:27:58.626Z,99036.91
2023-03-12T18:30:25.746Z,99039.44
2023-03-12T18:32:52.458Z,99040.09
2023-03-12T18:35:19.219Z,99046.34
2023-03-12T18:37:47.294Z,99046.75
2023-03-12T18:40:14.308Z,99058.25
2023-03-12T18:42:40.973Z,99052.22
2023-03-12T18:45:08.152Z,99057.22
2023-03-12T18:47:34.897Z,99043.19
2023-03-12T18:50:01.537Z,99051.00
2023-03-12T18:52:28.195Z,99041.13
2023-03-12T18:54:56.232Z,99050.03
2023-03-12T18:57:24.448Z,99041.81
2023-03-12T18:59:51.090Z,99027.28
2023-03-12T19:02:17.704Z,99033.91
2023-03-12T19:04:44.434Z,99020.56
2023-03-12T19:07:11.163Z,99020.66
2023-03-12T19:09:37.909Z,99018.28
2023-03-12T19:12:06.312Z,99024.06
2023-03-12T19:14:33.511Z,99028.56
2023-03-12T19:17:00.144Z,99035.75
2023-03-12T19:19:26.803Z,99031.44
2023-03-12T19:21:53.536Z,99011.00
2023-03-12T19:24:20.423Z,99022.97
2023-03-12T19:26:47.050Z,99024.16
2023-03-12T19:29:15.068Z,99025.19
2023-03-12T19:31:42.119Z,99019.84
2023-03-12T19:34:09.630Z,99001.03
2023-03-12T19:36:36.197Z,99016.53
2023-03-12T19:39:06.757Z,99011.22
2023-03-12T19:41:42.361Z,99014.06
2023-03-12T19:44:09.212Z,99012.34
2023-03-12T19:46:38.836Z,98999.44
2023-03-12T19:49:05.739Z,98990.59
2023-03-12T19:51:32.528Z,99002.03
2023-03-12T19:53:59.341Z,98994.41
2023-03-12T19:56:26.063Z,98994.16
2023-03-12T19:58:52.825Z,99003.63
2023-03-12T20:01:19.394Z,98997.06
2023-03-12T20:03:47.475Z,98996.63
2023-03-12T20:06:14.100Z,98981.72
2023-03-12T20:08:43.798Z,98990.56
2023-03-12T20:11:11.229Z,98992.69
2023-03-12T20:13:38.054Z,98972.38
2023-03-12T20:16:05.806Z,98969.91
2023-03-12T20:18:32.408Z,98977.00
2023-03-12T20:21:00.419Z,98981.03
2023-03-12T20:23:28.786Z,98973.28
2023-03-12T20:25:55.845Z,98963.66
2023-03-12T20:28:22.486Z,98948.94
2023-03-12T20:30:49.162Z,98968.63
2023-03-12T20:33:19.252Z,98951.72
2023-03-12T20:35:45.952Z,98966.91
2023-03-12T20:38:18.714Z,98958.41
2023-03-12T20:40:45.736Z,98947.22
2023-03-12T20:43:12.436Z,98957.63
2023-03-12T20:45:39.117Z,98952.75
2023-03-12T20:48:06.429Z,98938.72
2023-03-12T20:50:33.321Z,98947.59
2023-03-12T20:52:59.967Z,98940.13
2023-03-12T20:55:27.928Z,98937.16
2023-03-12T20:57:54.529Z,98915.63
2023-03-12T21:00:21.938Z,98938.59
2023-03-12T21:02:52.340Z,98922.44
2023-03-12T21:05:18.978Z,98928.25
2023-03-12T21:07:45.599Z,98921.69
2023-03-12T21:10:12.381Z,98921.13
2023-03-12T21:12:40.490Z,98915.22
2023-03-12T21:15:08.691Z,98908.19
2023-03-12T21:17:37.167Z,98905.41
2023-03-12T21:20:05.047Z,98909.63
2023-03-12T21:22:31.724Z,98902.28
2023-03-12T21:24:58.815Z,98909.88
2023-03-12T21:27:25.994Z,98904.16
2023-03-12T21:29:53.987Z,98899.59
2023-03-12T21:32:20.725Z,98901.81
2023-03-12T21:34:47.711Z,98890.66
2023-03-12T21:37:14.847Z,98893.38
2023-03-12T21:39:41.489Z,98886.50
2023-03-12T21:42:08.238Z,98900.94
2023-03-12T21:44:35.042Z,98880.75
2023-03-12T21:47:03.634Z,98888.44
2023-03-12T21:49:30.602Z,98891.06
2023-03-12T21:51:57.156Z,98878.28
2023-03-12T21:54:23.776Z,98876.19
2023-03-12T21:56:50.282Z,98875.47
2023-03-12T21:59:16.874Z,98871.22
2023-03-12T22:01:43.485Z,98865.19
2023-03-12T22:04:11.530Z,98875.22
2023-03-12T22:06:38.159Z,98870.53
2023-03-12T22:09:04.722Z,98868.06
2023-03-12T22:11:31.299Z,98878.44
2023-03-12T22:13:58.136Z,98865.44
2023-03-12T22:16:24.879Z,98862.16
2023-03-12T22:18:52.701Z,98851.63
2023-03-12T22:21:22.131Z,98857.19
2023-03-12T22:23:49.966Z,98854.22
2023-03-12T22:26:17.173Z,98850.13
2023-03-12T22:28:48.643Z,98847.41
2023-03-12T22:31:15.300Z,98844.03
2023-03-12T22:33:41.954Z,98838.25
2023-03-12T22:36:10.203Z,98836.28
2023-03-12T22:38:39.026Z,98826.25
2023-03-12T22:41:14.191Z,98823.75
2023-03-12T22:43:41.191Z,98823.78
2023-03-12T22:46:08.084Z,98806.88
2023-03-12T22:48:34.741Z,98803.56
2023-03-12T22:51:01.557Z,98809.66
2023-03-12T22:53:29.313Z,98796.22
2023-03-12T22:55:58.217Z,98792.38
2023-03-12T22:58:25.125Z,98792.47
2023-03-12T23:01:01.281Z,98785.16
2023-03-12T23:03:28.922Z,98767.50
2023-03-12T23:05:55.966Z,98763.06
2023-03-12T23:08:22.985Z,98763.59
2023-03-12T23:10:56.767Z,98761.16
2023-03-12T23:13:26.077Z,98753.47
2023-03-12T23:15:53.052Z,98746.44
2023-03-12T23:18:20.340Z,98746.41
2023-03-12T23:20:47.329Z,98736.81
2023-03-12T23:23:13.971Z,98732.22
2023-03-12T23:25:40.721Z,98721.97
2023-03-12T23:28:07.399Z,98704.97
2023-03-12T23:30:35.404Z,98702.50
2023-03-12T23:33:02.176Z,98704.16
2023-03-12T23:35:29.090Z,98701.44
2023-03-12T23:37:55.810Z,98697.88
2023-03-12T23:40:23.601Z,98696.78
2023-03-12T23:42:50.236Z,98683.03
2023-03-12T23:45:17.033Z,98686.31
2023-03-12T23:47:45.173Z,98685.06
2023-03-12T23:50:12.714Z,98683.00
2023-03-12T23:52:42.166Z,98683.59
2023-03-12T23:55:09.396Z,98669.25
2023-03-12T23:57:36.264Z,98653.63
